createdAt,value
2018-12-27T00:00:54.536Z,1.30
2018-12-27T00:03:23.970Z,1.30
2018-12-27T00:05:53.276Z,1.40
2018-12-27T00:08:22.657Z,1.40
2018-12-27T00:10:51.917Z,1.20
2018-12-27T00:13:21.318Z,1.10
2018-12-27T00:15:50.771Z,1.10
2018-12-27T00:18:20.325Z,1.10
2018-12-27T00:20:49.754Z,1.00
2018-12-27T00:23:19.195Z,0.90
2018-12-27T00:25:48.702Z,0.70
2018-12-27T00:28:18.102Z,0.60
2018-12-27T00:30:47.623Z,0.70
2018-12-27T00:33:17.278Z,0.80
2018-12-27T00:35:46.754Z,0.80
2018-12-27T00:38:16.262Z,0.80
2018-12-27T00:40:45.737Z,0.80
2018-12-27T00:43:15.238Z,0.90
2018-12-27T00:45:44.702Z,1.00
2018-12-27T00:48:14.396Z,1.00
2018-12-27T00:50:44.075Z,1.10
2018-12-27T00:53:13.821Z,1.10
2018-12-27T00:55:43.431Z,1.10
2018-12-27T00:58:13.152Z,1.00
2018-12-27T01:00:42.571Z,1.00
2018-12-27T01:03:12.078Z,0.90
2018-12-27T01:05:41.537Z,0.90
2018-12-27T01:08:11.298Z,0.80
2018-12-27T01:10:40.859Z,0.90
2018-12-27T01:13:10.355Z,0.90
2018-12-27T01:15:39.879Z,1.00
2018-12-27T01:18:09.523Z,1.10
2018-12-27T01:20:38.962Z,1.20
2018-12-27T01:23:08.480Z,1.10
2018-12-27T01:25:38.245Z,1.00
2018-12-27T01:28:07.851Z,1.00
2018-12-27T01:30:37.651Z,1.00
2018-12-27T01:33:07.322Z,0.90
2018-12-27T01:35:36.815Z,0.80
2018-12-27T01:38:06.475Z,0.80
2018-12-27T01:40:36.039Z,0.80
2018-12-27T01:43:05.854Z,0.80
2018-12-27T01:45:35.442Z,0.70
2018-12-27T01:48:04.867Z,0.80
2018-12-27T01:50:34.337Z,0.80
2018-12-27T01:53:03.828Z,0.80
2018-12-27T01:55:33.319Z,1.00
2018-12-27T01:58:02.749Z,1.00
2018-12-27T02:00:32.178Z,0.90
2018-12-27T02:03:01.571Z,0.80
2018-12-27T02:05:31.125Z,0.80
2018-12-27T02:08:00.686Z,0.90
2018-12-27T02:10:30.323Z,1.00
2018-12-27T02:13:00.006Z,0.70
2018-12-27T02:15:29.543Z,0.50
2018-12-27T02:17:59.185Z,0.30
2018-12-27T02:20:28.658Z,0.10
2018-12-27T02:22:58.387Z,0.00
2018-12-27T02:25:27.917Z,-0.10
2018-12-27T02:27:57.413Z,-0.10
2018-12-27T02:30:27.079Z,0.00
2018-12-27T02:32:56.475Z,0.10
2018-12-27T02:35:26.153Z,0.10
2018-12-27T02:37:55.799Z,0.10
2018-12-27T02:40:25.620Z,0.20
2018-12-27T02:42:55.249Z,0.30
2018-12-27T02:45:24.850Z,0.40
2018-12-27T02:47:54.421Z,0.50
2018-12-27T02:50:24.050Z,0.60
2018-12-27T02:52:53.658Z,0.60
2018-12-27T02:55:23.149Z,0.70
2018-12-27T02:57:52.796Z,0.80
2018-12-27T03:00:22.491Z,0.90
2018-12-27T03:02:52.036Z,1.00
2018-12-27T03:05:24.212Z,0.70
2018-12-27T03:07:53.684Z,0.30
2018-12-27T03:10:23.143Z,0.30
2018-12-27T03:12:52.635Z,0.30
2018-12-27T03:15:22.169Z,0.20
2018-12-27T03:17:51.796Z,0.00
2018-12-27T03:20:21.302Z,-0.10
2018-12-27T03:22:50.801Z,0.00
2018-12-27T03:25:20.284Z,-0.10
2018-12-27T03:27:49.720Z,-0.10
2018-12-27T03:30:19.308Z,0.00
2018-12-27T03:32:48.944Z,0.10
2018-12-27T03:35:18.621Z,0.10
2018-12-27T03:37:48.263Z,0.10
2018-12-27T03:40:18.153Z,0.20
2018-12-27T03:42:47.754Z,0.20
2018-12-27T03:45:17.276Z,0.40
2018-12-27T03:47:46.721Z,0.50
2018-12-27T03:50:16.303Z,0.70
2018-12-27T03:52:46.156Z,0.80
2018-12-27T03:55:15.679Z,0.90
2018-12-27T03:57:45.466Z,1.00
2018-12-27T04:00:14.950Z,0.90
2018-12-27T04:02:44.633Z,0.90
2018-12-27T04:05:14.187Z,0.90
2018-12-27T04:07:43.611Z,0.80
2018-12-27T04:10:13.257Z,1.00
2018-12-27T04:12:43.405Z,1.10
2018-12-27T04:15:12.731Z,1.00
2018-12-27T04:17:42.471Z,0.90
2018-12-27T04:20:11.960Z,0.90
2018-12-27T04:22:41.837Z,0.80
2018-12-27T04:25:11.619Z,0.90
2018-12-27T04:27:41.101Z,0.90
2018-12-27T04:30:13.682Z,0.90
2018-12-27T04:32:44.115Z,0.70
2018-12-27T04:35:13.538Z,0.70
2018-12-27T04:37:42.823Z,0.70
2018-12-27T04:40:12.265Z,0.60
2018-12-27T04:42:41.918Z,0.60
2018-12-27T04:45:11.483Z,0.40
2018-12-27T04:47:41.159Z,0.10
2018-12-27T04:50:10.830Z,0.00
2018-12-27T04:52:42.833Z,0.10
2018-12-27T04:55:12.321Z,0.30
2018-12-27T04:57:41.862Z,0.50
2018-12-27T05:00:12.269Z,0.70
2018-12-27T05:02:43.915Z,0.80
2018-12-27T05:05:13.252Z,0.70
2018-12-27T05:07:42.783Z,0.70
2018-12-27T05:10:12.179Z,0.80
2018-12-27T05:12:41.835Z,0.80
2018-12-27T05:15:11.474Z,0.90
2018-12-27T05:17:40.974Z,0.80
2018-12-27T05:20:10.263Z,0.90
2018-12-27T05:22:39.811Z,0.90
2018-12-27T05:25:09.295Z,1.00
2018-12-27T05:27:38.819Z,1.00
2018-12-27T05:30:08.239Z,0.90
2018-12-27T05:32:37.582Z,0.90
2018-12-27T05:35:06.912Z,0.90
2018-12-27T05:37:36.186Z,0.90
2018-12-27T05:40:05.871Z,0.90
2018-12-27T05:42:35.366Z,0.90
2018-12-27T05:45:04.696Z,0.80
2018-12-27T05:47:34.307Z,0.60
2018-12-27T05:50:03.573Z,0.70
2018-12-27T05:52:37.286Z,0.80
2018-12-27T05:55:06.538Z,0.70
2018-12-27T05:57:39.331Z,0.70
2018-12-27T06:00:08.088Z,0.80
2018-12-27T06:02:37.896Z,0.90
2018-12-27T06:05:07.117Z,0.90
2018-12-27T06:07:37.415Z,0.80
2018-12-27T06:10:06.803Z,0.60
2018-12-27T06:12:36.366Z,0.30
2018-12-27T06:15:05.892Z,0.00
2018-12-27T06:17:36.307Z,0.10
2018-12-27T06:20:14.111Z,0.10
2018-12-27T06:22:46.358Z,0.10
2018-12-27T06:25:15.895Z,-0.10
2018-12-27T06:27:45.361Z,-0.20
2018-12-27T06:30:14.653Z,-0.50
2018-12-27T06:32:45.415Z,-0.70
2018-12-27T06:35:14.819Z,-0.60
2018-12-27T06:37:44.175Z,-0.70
2018-12-27T06:40:13.548Z,-0.60
2018-12-27T06:42:43.276Z,-0.30
2018-12-27T06:45:12.759Z,-0.10
2018-12-27T06:47:42.379Z,0.00
2018-12-27T06:50:11.827Z,0.20
2018-12-27T06:52:41.509Z,0.30
2018-12-27T06:55:10.841Z,0.40
2018-12-27T06:57:40.289Z,0.40
2018-12-27T07:00:09.829Z,0.40
2018-12-27T07:02:39.207Z,0.40
2018-12-27T07:05:08.822Z,0.40
2018-12-27T07:07:38.078Z,0.50
2018-12-27T07:10:14.100Z,0.50
2018-12-27T07:12:43.591Z,0.40
2018-12-27T07:15:15.943Z,0.10
2018-12-27T07:17:45.312Z,0.00
2018-12-27T07:20:14.708Z,0.20
2018-12-27T07:22:44.348Z,0.00
2018-12-27T07:25:13.863Z,0.10
2018-12-27T07:27:43.334Z,-0.10
2018-12-27T07:30:12.775Z,-0.20
2018-12-27T07:32:42.323Z,-0.30
2018-12-27T07:35:11.915Z,-0.30
2018-12-27T07:37:41.323Z,-0.40
2018-12-27T07:40:10.724Z,-0.20
2018-12-27T07:42:40.143Z,0.00
2018-12-27T07:45:09.788Z,0.20
2018-12-27T07:47:39.198Z,0.30
2018-12-27T07:50:08.651Z,0.40
2018-12-27T07:52:41.151Z,0.50
2018-12-27T07:55:14.725Z,0.40
2018-12-27T07:57:44.806Z,0.40
2018-12-27T08:00:14.347Z,0.40
2018-12-27T08:02:44.026Z,0.30
2018-12-27T08:05:13.832Z,0.40
2018-12-27T08:07:43.354Z,0.60
2018-12-27T08:10:12.951Z,0.70
2018-12-27T08:12:42.508Z,0.70
2018-12-27T08:15:12.155Z,0.40
2018-12-27T08:17:41.491Z,0.40
2018-12-27T08:20:10.902Z,0.30
2018-12-27T08:22:40.199Z,0.30
2018-12-27T08:25:09.769Z,0.40
2018-12-27T08:27:39.264Z,0.40
2018-12-27T08:30:09.199Z,0.50
2018-12-27T08:32:38.512Z,0.50
2018-12-27T08:35:11.455Z,0.60
2018-12-27T08:37:38.886Z,0.70
2018-12-27T08:40:08.171Z,0.90
2018-12-27T08:42:43.161Z,0.90
2018-12-27T08:45:12.630Z,1.00
2018-12-27T08:47:42.041Z,1.10
2018-12-27T08:50:11.955Z,1.20
2018-12-27T08:52:41.371Z,1.10
2018-12-27T08:55:10.816Z,1.00
2018-12-27T08:57:40.215Z,1.10
2018-12-27T09:00:09.750Z,1.20
2018-12-27T09:02:39.062Z,1.40
2018-12-27T09:05:08.408Z,1.50
2018-12-27T09:07:37.739Z,1.60
2018-12-27T09:10:07.320Z,1.80
2018-12-27T09:12:36.805Z,1.90
2018-12-27T09:15:06.361Z,2.10
2018-12-27T09:17:36.027Z,2.30
2018-12-27T09:20:06.248Z,2.40
2018-12-27T09:22:35.763Z,2.40
2018-12-27T09:25:05.422Z,2.50
2018-12-27T09:27:35.228Z,2.50
2018-12-27T09:30:05.024Z,2.60
2018-12-27T09:32:36.484Z,2.70
2018-12-27T09:35:05.851Z,2.70
2018-12-27T09:37:35.220Z,2.70
2018-12-27T09:40:04.943Z,2.70
2018-12-27T09:42:34.412Z,2.80
2018-12-27T09:45:03.886Z,2.90
2018-12-27T09:47:33.171Z,3.00
2018-12-27T09:50:02.467Z,3.10
2018-12-27T09:52:31.806Z,3.10
2018-12-27T09:55:01.943Z,3.00
2018-12-27T09:57:31.435Z,3.10
2018-12-27T10:00:01.923Z,3.20
2018-12-27T10:02:31.328Z,3.10
2018-12-27T10:05:00.691Z,3.00
2018-12-27T10:07:31.370Z,2.90
2018-12-27T10:10:04.019Z,2.90
2018-12-27T10:12:33.426Z,3.00
2018-12-27T10:15:02.759Z,3.10
2018-12-27T10:17:32.061Z,3.20
2018-12-27T10:20:01.377Z,3.30
2018-12-27T10:22:30.847Z,3.40
2018-12-27T10:25:00.214Z,3.40
2018-12-27T10:27:29.577Z,3.40
2018-12-27T10:29:59.076Z,3.40
2018-12-27T10:32:28.409Z,3.40
2018-12-27T10:34:57.887Z,3.40
2018-12-27T10:37:27.245Z,3.50
2018-12-27T10:39:56.521Z,3.50
2018-12-27T10:42:25.915Z,3.50
2018-12-27T10:44:55.321Z,3.50
2018-12-27T10:47:24.798Z,3.60
2018-12-27T10:49:54.173Z,3.60
2018-12-27T10:52:24.725Z,3.70
2018-12-27T10:54:54.475Z,3.70
2018-12-27T10:57:23.968Z,3.70
2018-12-27T10:59:53.314Z,3.80
2018-12-27T11:02:22.651Z,3.80
2018-12-27T11:04:52.090Z,3.90
2018-12-27T11:07:21.457Z,3.90
2018-12-27T11:09:50.961Z,4.00
2018-12-27T11:12:20.367Z,3.90
2018-12-27T11:14:49.879Z,3.80
2018-12-27T11:17:23.196Z,3.90
2018-12-27T11:19:52.533Z,3.90
2018-12-27T11:22:21.970Z,3.90
2018-12-27T11:24:51.323Z,4.00
2018-12-27T11:27:20.647Z,4.00
2018-12-27T11:29:50.068Z,4.10
2018-12-27T11:32:19.528Z,4.10
2018-12-27T11:34:48.968Z,4.10
2018-12-27T11:37:18.317Z,4.20
2018-12-27T11:39:47.767Z,4.20
2018-12-27T11:42:17.269Z,4.20
2018-12-27T11:44:46.788Z,4.30
2018-12-27T11:47:16.120Z,4.30
2018-12-27T11:49:45.516Z,4.30
2018-12-27T11:52:14.972Z,4.30
2018-12-27T11:54:44.366Z,4.30
2018-12-27T11:57:16.380Z,4.30
2018-12-27T11:59:45.826Z,4.30
2018-12-27T12:02:15.177Z,4.30
2018-12-27T12:04:44.610Z,4.30
2018-12-27T12:07:14.017Z,4.30
2018-12-27T12:09:43.293Z,4.30
2018-12-27T12:12:12.658Z,4.30
2018-12-27T12:14:42.079Z,4.30
2018-12-27T12:17:11.500Z,4.40
2018-12-27T12:19:40.883Z,4.40
2018-12-27T12:22:10.288Z,4.40
2018-12-27T12:24:39.865Z,4.50
2018-12-27T12:27:09.390Z,4.50
2018-12-27T12:29:39.059Z,4.50
2018-12-27T12:32:08.385Z,4.60
2018-12-27T12:34:39.034Z,4.60
2018-12-27T12:37:13.910Z,4.60
2018-12-27T12:39:39.604Z,4.70
2018-12-27T12:42:32.956Z,4.70
2018-12-27T12:44:58.901Z,4.80
2018-12-27T12:47:28.421Z,4.80
2018-12-27T12:49:57.662Z,4.80
2018-12-27T12:52:26.890Z,4.90
2018-12-27T12:54:56.162Z,4.90
2018-12-27T12:57:25.410Z,5.00
2018-12-27T12:59:54.702Z,5.00
2018-12-27T13:02:24.019Z,5.00
2018-12-27T13:04:53.274Z,5.00
2018-12-27T13:07:22.534Z,5.00
2018-12-27T13:09:51.790Z,5.00
2018-12-27T13:12:21.090Z,5.00
2018-12-27T13:14:50.359Z,5.00
2018-12-27T13:17:19.774Z,5.00
2018-12-27T13:19:49.174Z,5.00
2018-12-27T13:22:18.452Z,5.00
2018-12-27T13:24:47.859Z,5.00
2018-12-27T13:27:18.063Z,5.00
2018-12-27T13:29:47.268Z,5.00
2018-12-27T13:32:16.602Z,4.90
2018-12-27T13:34:46.036Z,4.90
2018-12-27T13:37:15.426Z,4.80
2018-12-27T13:39:44.780Z,4.80
2018-12-27T13:42:14.085Z,4.80
2018-12-27T13:44:44.157Z,4.80
2018-12-27T13:47:13.396Z,4.70
2018-12-27T13:49:42.819Z,4.70
2018-12-27T13:52:12.173Z,4.70
2018-12-27T13:54:41.465Z,4.70
2018-12-27T13:57:11.012Z,4.60
2018-12-27T13:59:40.383Z,4.60
2018-12-27T14:02:09.763Z,4.50
2018-12-27T14:04:47.590Z,4.50
2018-12-27T14:07:33.678Z,4.50
2018-12-27T14:10:03.219Z,4.40
2018-12-27T14:12:32.453Z,4.40
2018-12-27T14:15:01.753Z,4.40
2018-12-27T14:17:31.015Z,4.40
2018-12-27T14:20:00.315Z,4.40
2018-12-27T14:22:29.646Z,4.30
2018-12-27T14:24:58.939Z,4.30
2018-12-27T14:27:28.218Z,4.30
2018-12-27T14:29:57.480Z,4.30
2018-12-27T14:32:26.641Z,4.20
2018-12-27T14:34:56.172Z,4.20
2018-12-27T14:37:25.577Z,4.20
2018-12-27T14:39:54.828Z,4.20
2018-12-27T14:42:24.148Z,4.20
2018-12-27T14:44:54.067Z,4.20
2018-12-27T14:47:23.433Z,4.10
2018-12-27T14:49:52.699Z,4.10
2018-12-27T14:52:21.945Z,4.10
2018-12-27T14:54:51.189Z,3.90
2018-12-27T14:57:20.420Z,3.80
2018-12-27T14:59:49.686Z,3.80
2018-12-27T15:02:18.926Z,3.70
2018-12-27T15:04:48.149Z,3.70
2018-12-27T15:07:17.739Z,3.70
2018-12-27T15:09:46.957Z,3.70
2018-12-27T15:12:16.226Z,3.70
2018-12-27T15:14:45.502Z,3.70
2018-12-27T15:17:15.625Z,3.70
2018-12-27T15:19:45.045Z,3.70
2018-12-27T15:22:14.391Z,3.60
2018-12-27T15:24:43.711Z,3.60
2018-12-27T15:27:12.966Z,3.60
2018-12-27T15:29:42.630Z,3.50
2018-12-27T15:32:11.890Z,3.50
2018-12-27T15:34:41.098Z,3.40
2018-12-27T15:37:10.429Z,3.20
2018-12-27T15:39:39.718Z,3.10
2018-12-27T15:42:09.013Z,3.00
2018-12-27T15:44:38.299Z,3.00
2018-12-27T15:47:07.490Z,2.90
2018-12-27T15:49:36.786Z,2.80
2018-12-27T15:52:06.015Z,2.80
2018-12-27T15:54:35.302Z,2.70
2018-12-27T15:57:04.561Z,2.70
2018-12-27T15:59:33.755Z,2.70
2018-12-27T16:02:03.017Z,2.80
2018-12-27T16:04:32.289Z,2.80
2018-12-27T16:07:02.200Z,2.80
2018-12-27T16:09:31.679Z,2.80
2018-12-27T16:12:01.006Z,2.80
2018-12-27T16:14:30.287Z,2.70
2018-12-27T16:16:59.721Z,2.80
2018-12-27T16:19:29.050Z,2.90
2018-12-27T16:21:58.309Z,2.80
2018-12-27T16:24:27.593Z,2.70
2018-12-27T16:26:56.899Z,2.80
2018-12-27T16:29:26.272Z,2.90
2018-12-27T16:31:55.575Z,2.90
2018-12-27T16:34:24.950Z,3.00
2018-12-27T16:36:54.138Z,3.00
2018-12-27T16:39:23.435Z,3.00
2018-12-27T16:41:52.809Z,3.00
2018-12-27T16:44:22.223Z,3.10
2018-12-27T16:46:51.548Z,3.10
2018-12-27T16:49:30.977Z,2.90
2018-12-27T16:52:00.232Z,2.80
2018-12-27T16:54:29.609Z,2.80
2018-12-27T16:56:58.882Z,2.80
2018-12-27T16:59:28.170Z,2.80
2018-12-27T17:01:57.344Z,2.80
2018-12-27T17:04:26.573Z,2.90
2018-12-27T17:06:55.876Z,2.90
2018-12-27T17:09:25.218Z,2.90
2018-12-27T17:11:54.547Z,2.90
2018-12-27T17:14:23.876Z,2.90
2018-12-27T17:16:53.186Z,2.90
2018-12-27T17:19:22.445Z,2.80
2018-12-27T17:21:51.672Z,2.80
2018-12-27T17:24:20.962Z,2.80
2018-12-27T17:26:50.253Z,2.70
2018-12-27T17:29:19.534Z,2.60
2018-12-27T17:31:49.350Z,2.60
2018-12-27T17:34:19.515Z,2.50
2018-12-27T17:36:49.091Z,2.40
2018-12-27T17:39:18.646Z,2.40
2018-12-27T17:41:48.005Z,2.20
2018-12-27T17:44:17.297Z,2.20
2018-12-27T17:46:46.592Z,2.20
2018-12-27T17:49:16.974Z,2.10
2018-12-27T17:51:46.402Z,2.10
2018-12-27T17:54:15.683Z,2.10
2018-12-27T17:56:44.923Z,2.10
2018-12-27T17:59:14.109Z,2.10
2018-12-27T18:01:43.388Z,2.10
2018-12-27T18:04:12.670Z,2.20
2018-12-27T18:06:42.143Z,2.20
2018-12-27T18:09:11.569Z,2.30
2018-12-27T18:11:41.068Z,2.30
2018-12-27T18:14:10.607Z,2.30
2018-12-27T18:16:40.068Z,2.30
2018-12-27T18:19:09.708Z,2.10
2018-12-27T18:21:39.216Z,1.80
2018-12-27T18:24:08.864Z,1.70
2018-12-27T18:26:38.252Z,1.60
2018-12-27T18:29:07.863Z,1.60
2018-12-27T18:31:37.605Z,1.80
2018-12-27T18:34:07.098Z,2.00
2018-12-27T18:36:36.712Z,2.00
2018-12-27T18:39:07.884Z,2.10
2018-12-27T18:41:37.428Z,2.10
2018-12-27T18:44:06.998Z,2.20
2018-12-27T18:46:36.491Z,2.30
2018-12-27T18:49:07.183Z,2.30
2018-12-27T18:51:37.027Z,2.30
2018-12-27T18:54:07.353Z,2.30
2018-12-27T18:56:37.887Z,2.20
2018-12-27T18:59:08.243Z,2.20
2018-12-27T19:01:41.998Z,2.10
2018-12-27T19:04:11.407Z,2.10
2018-12-27T19:06:40.946Z,2.00
2018-12-27T19:09:10.462Z,1.90
2018-12-27T19:12:15.881Z,1.60
2018-12-27T19:15:00.146Z,1.50
2018-12-27T19:17:34.893Z,1.50
2018-12-27T19:20:04.291Z,1.70
2018-12-27T19:22:51.351Z,1.90
2018-12-27T19:25:20.613Z,1.90
2018-12-27T19:27:49.978Z,1.90
2018-12-27T19:30:19.177Z,2.10
2018-12-27T19:32:48.482Z,2.20
2018-12-27T19:35:17.966Z,2.30
2018-12-27T19:37:52.062Z,2.40
2018-12-27T19:40:18.356Z,2.50
2018-12-27T19:42:47.533Z,2.60
2018-12-27T19:45:16.789Z,2.70
2018-12-27T19:47:46.004Z,2.80
2018-12-27T19:50:15.243Z,2.80
2018-12-27T19:52:44.537Z,2.90
2018-12-27T19:55:13.831Z,2.80
2018-12-27T19:57:43.096Z,2.80
2018-12-27T20:00:12.469Z,2.80
2018-12-27T20:02:41.748Z,2.70
2018-12-27T20:05:11.169Z,2.70
2018-12-27T20:07:40.400Z,2.70
2018-12-27T20:10:09.647Z,2.70
2018-12-27T20:12:39.179Z,2.70
2018-12-27T20:15:08.931Z,2.70
2018-12-27T20:17:38.853Z,2.70
2018-12-27T20:20:09.233Z,2.70
2018-12-27T20:22:38.863Z,2.70
2018-12-27T20:25:09.503Z,2.60
2018-12-27T20:27:39.130Z,2.60
2018-12-27T20:30:09.715Z,2.70
2018-12-27T20:32:39.334Z,2.60
2018-12-27T20:35:08.851Z,2.40
2018-12-27T20:37:38.426Z,2.40
2018-12-27T20:40:08.055Z,2.40
2018-12-27T20:42:37.802Z,2.30
2018-12-27T20:45:07.478Z,2.20
2018-12-27T20:47:37.286Z,2.00
2018-12-27T20:50:07.277Z,1.80
2018-12-27T20:56:26.871Z,1.80
2018-12-27T20:58:56.542Z,1.80
2018-12-27T21:01:26.088Z,1.80
2018-12-27T21:03:55.838Z,1.90
2018-12-27T21:06:25.539Z,1.90
2018-12-27T21:08:55.004Z,1.90
2018-12-27T21:11:24.716Z,1.60
2018-12-27T21:13:54.325Z,1.40
2018-12-27T21:16:23.871Z,1.20
2018-12-27T21:18:53.507Z,0.80
2018-12-27T21:21:24.849Z,0.60
2018-12-27T21:23:54.445Z,0.50
2018-12-27T21:26:24.402Z,0.60
2018-12-27T21:28:53.890Z,0.60
2018-12-27T21:31:23.250Z,0.60
2018-12-27T21:33:53.692Z,0.60
2018-12-27T21:36:23.294Z,0.70
2018-12-27T21:38:53.347Z,1.00
2018-12-27T21:41:23.156Z,1.10
2018-12-27T21:43:52.936Z,1.00
2018-12-27T21:46:22.097Z,0.90
2018-12-27T21:48:51.396Z,0.70
2018-12-27T21:51:20.669Z,0.60
2018-12-27T21:53:49.979Z,0.60
2018-12-27T21:56:19.282Z,0.60
2018-12-27T21:58:48.566Z,0.70
2018-12-27T22:01:17.837Z,0.90
2018-12-27T22:03:47.085Z,0.80
2018-12-27T22:06:16.324Z,0.90
2018-12-27T22:08:45.590Z,0.90
2018-12-27T22:11:14.897Z,1.20
2018-12-27T22:13:44.870Z,1.30
2018-12-27T22:16:14.125Z,1.50
2018-12-27T22:18:43.429Z,1.70
2018-12-27T22:21:12.702Z,1.80
2018-12-27T22:23:42.005Z,1.80
2018-12-27T22:26:11.240Z,1.60
2018-12-27T22:28:40.684Z,1.90
2018-12-27T22:31:09.965Z,2.10
2018-12-27T22:33:39.261Z,2.20
2018-12-27T22:36:08.408Z,2.00
2018-12-27T22:38:37.666Z,1.60
2018-12-27T22:41:06.851Z,1.50
2018-12-27T22:43:36.088Z,1.40
2018-12-27T22:46:05.384Z,1.50
2018-12-27T22:48:41.448Z,1.70
2018-12-27T22:51:10.697Z,1.90
2018-12-27T22:53:40.002Z,2.00
2018-12-27T22:56:09.210Z,2.10
2018-12-27T22:58:38.521Z,2.20
2018-12-27T23:01:08.230Z,2.20
2018-12-27T23:03:37.539Z,2.10
2018-12-27T23:06:06.762Z,1.80
2018-12-27T23:08:42.798Z,1.60
2018-12-27T23:11:07.018Z,1.70
2018-12-27T23:13:41.586Z,1.70
2018-12-27T23:16:10.893Z,1.50
2018-12-27T23:18:40.275Z,1.50
2018-12-27T23:21:09.537Z,1.60
2018-12-27T23:23:38.762Z,1.70
2018-12-27T23:26:08.069Z,1.90
2018-12-27T23:28:37.311Z,1.70
2018-12-27T23:31:06.638Z,1.70
2018-12-27T23:33:35.878Z,1.70
2018-12-27T23:36:05.178Z,1.80
2018-12-27T23:38:34.489Z,1.80
2018-12-27T23:41:03.721Z,1.80
2018-12-27T23:43:32.927Z,1.80
2018-12-27T23:46:02.189Z,1.80
2018-12-27T23:48:31.488Z,2.00
2018-12-27T23:51:00.765Z,2.20
2018-12-27T23:53:29.958Z,2.30
2018-12-27T23:55:59.131Z,2.40
2018-12-27T23:58:28.417Z,2.40
